Time;durP1;ratioP1;P1;durP2;ratioP2;P2;SDS_P1;SDS_P2;PMS_P1;PMS_P2;Temp;Humidity;BMP_temperature;BMP_pressure;BME280_temperature;BME280_humidity;BME280_pressure;Samples;Min_cycle;Max_cycle;Signal;HPM_P1;HPM_P2
2023/09/11 00:00:14;;;;;;;0.30;0.30;;;;;;;20.58;64.00;96873.81;29395;242;63005;-68
2023/09/11 00:00:45;;;;;;;0.30;0.30;;;;;;;20.57;64.08;96866.69;29395;247;63009;-68
2023/09/11 00:01:20;;;;;;;0.30;0.30;;;;;;;20.55;63.84;96869.00;29394;218;64009;-67
2023/09/11 00:01:51;;;;;;;0.30;0.30;;;;;;;20.55;64.05;96869.00;29395;246;63009;-53
2023/09/11 00:02:22;;;;;;;0.30;0.30;;;;;;;20.54;64.18;96867.41;29395;264;63005;-54
2023/09/11 00:02:54;;;;;;;0.30;0.30;;;;;;;20.53;64.33;96863.06;29395;245;63009;-53
2023/09/11 00:03:25;;;;;;;0.30;0.30;;;;;;;20.53;64.37;96868.56;29395;198;63005;-54
2023/09/11 00:03:57;;;;;;;0.30;0.30;;;;;;;20.52;64.50;96866.16;29395;210;63009;-54
2023/09/11 00:04:29;;;;;;;0.30;0.30;;;;;;;20.50;64.44;96871.25;29395;263;63004;-53
2023/09/11 00:05:00;;;;;;;0.30;0.30;;;;;;;20.49;64.69;96864.12;29395;197;63009;-54
2023/09/11 00:05:31;;;;;;;0.30;0.30;;;;;;;20.48;64.78;96866.09;29394;216;64009;-53
2023/09/11 00:06:07;;;;;;;0.30;0.30;;;;;;;20.48;64.38;96866.09;29395;199;63009;-53
2023/09/11 00:06:39;;;;;;;0.30;0.30;;;;;;;20.47;64.58;96866.44;29395;199;63004;-68
2023/09/11 00:07:10;;;;;;;0.30;0.30;;;;;;;20.47;64.77;96866.44;29395;284;63008;-67
2023/09/11 00:07:41;;;;;;;0.30;0.30;;;;;;;20.46;64.64;96865.62;29395;212;63005;-53
2023/09/11 00:08:13;;;;;;;0.30;0.30;;;;;;;20.46;64.78;96860.13;29395;236;63009;-54
2023/09/11 00:08:45;;;;;;;0.30;0.30;;;;;;;20.45;64.71;96861.28;29395;230;63005;-53
2023/09/11 00:09:16;;;;;;;0.30;0.30;;;;;;;20.44;64.62;96856.97;29395;216;63009;-53
2023/09/11 00:09:47;;;;;;;0.30;0.30;;;;;;;20.44;64.61;96858.91;29395;240;63005;-54
2023/09/11 00:10:18;;;;;;;0.30;0.30;;;;;;;20.44;64.83;96859.72;29395;208;63015;-54
2023/09/11 00:10:50;;;;;;;0.30;0.30;;;;;;;20.43;64.75;96855.34;29394;210;64009;-67
2023/09/11 00:11:24;;;;;;;0.30;0.30;;;;;;;20.44;64.74;96862.47;29395;197;63009;-69
2023/09/11 00:11:57;;;;;;;0.30;0.30;;;;;;;20.43;64.70;96860.87;29395;202;63004;-53
2023/09/11 00:12:28;;;;;;;0.30;0.30;;;;;;;20.43;64.88;96855.34;29395;216;63009;-67
2023/09/11 00:13:00;;;;;;;0.30;0.30;;;;;;;20.43;64.55;96858.13;29395;244;63004;-54
2023/09/11 00:13:31;;;;;;;0.30;0.30;;;;;;;20.42;64.46;96859.28;29395;218;63009;-68
2023/09/11 00:14:02;;;;;;;0.30;0.30;;;;;;;20.42;64.87;96856.50;29395;202;63004;-67
2023/09/11 00:14:34;;;;;;;0.30;0.30;;;;;;;20.42;64.75;96862.03;29395;239;63008;-68
2023/09/11 00:15:10;;;;;;;0.30;0.30;;;;;;;20.40;64.82;96850.56;29395;209;63005;-53
2023/09/11 00:15:41;;;;;;;0.30;0.30;;;;;;;20.41;64.85;96852.16;29395;213;63009;-53
2023/09/11 00:16:13;;;;;;;0.30;0.30;;;;;;;20.40;64.92;96856.06;29394;202;64009;-54
2023/09/11 00:16:44;;;;;;;0.40;0.40;;;;;;;20.40;64.94;96851.34;29395;227;63009;-54
2023/09/11 00:17:15;;;;;;;0.30;0.30;;;;;;;20.39;65.02;96860.78;29395;202;63005;-53
2023/09/11 00:17:46;;;;;;;0.30;0.30;;;;;;;20.38;65.11;96853.66;29395;245;63009;-68
2023/09/11 00:18:17;;;;;;;0.30;0.30;;;;;;;20.38;65.17;96858.38;29395;250;63005;-67
2023/09/11 00:18:49;;;;;;;0.30;0.30;;;;;;;20.38;65.11;96852.87;29395;218;63009;-53
2023/09/11 00:19:20;;;;;;;0.30;0.30;;;;;;;20.37;64.95;96851.25;29395;241;63004;-68
2023/09/11 00:19:52;;;;;;;0.30;0.30;;;;;;;20.36;65.48;96855.16;29395;209;63009;-67
2023/09/11 00:20:23;;;;;;;0.30;0.30;;;;;;;20.35;65.27;96848.84;29395;249;63004;-53
2023/09/11 00:20:55;;;;;;;0.30;0.30;;;;;;;20.33;65.54;96856.66;29395;199;63009;-54
2023/09/11 00:21:26;;;;;;;0.30;0.30;;;;;;;20.34;65.37;96851.94;29394;244;64009;-69
2023/09/11 00:21:58;;;;;;;0.40;0.40;;;;;;;20.33;65.38;96853.09;29395;244;63008;-53
2023/09/11 00:22:29;;;;;;;0.30;0.30;;;;;;;20.33;65.21;96850.34;29395;256;63005;-68
2023/09/11 00:23:08;;;;;;;0.30;0.30;;;;;;;20.33;65.49;96850.34;29395;228;63009;-54
2023/09/11 00:23:39;;;;;;;0.30;0.30;;;;;;;20.31;65.86;96847.16;29395;241;63005;-69
2023/09/11 00:24:10;;;;;;;0.30;0.30;;;;;;;20.30;65.63;96853.81;29395;202;63019;-53
2023/09/11 00:24:42;;;;;;;0.30;0.30;;;;;;;20.29;65.97;96850.25;29395;234;63005;-52
2023/09/11 00:25:13;;;;;;;0.30;0.30;;;;;;;20.29;65.70;96852.22;29395;202;63009;-54
2023/09/11 00:25:45;;;;;;;0.30;0.30;;;;;;;20.29;66.08;96849.47;29395;237;63005;-68
2023/09/11 00:26:16;;;;;;;0.30;0.30;;;;;;;20.29;65.97;96854.97;29395;203;63009;-68
2023/09/11 00:26:47;;;;;;;0.30;0.30;;;;;;;20.27;66.15;96852.56;29394;234;64009;-53
2023/09/11 00:27:19;;;;;;;0.30;0.30;;;;;;;20.26;65.88;96847.41;29395;202;63009;-53
2023/09/11 00:27:50;;;;;;;0.30;0.30;;;;;;;20.25;65.88;96849.38;29395;202;63004;-67
2023/09/11 00:28:21;;;;;;;0.30;0.30;;;;;;;20.26;66.21;96855.69;29395;213;63009;-68
2023/09/11 00:28:53;;;;;;;0.30;0.30;;;;;;;20.25;66.14;96854.06;29395;245;63004;-53
2023/09/11 00:29:25;;;;;;;0.30;0.30;;;;;;;20.25;65.84;96843.06;29395;204;63008;-54
2023/09/11 00:29:57;;;;;;;0.30;0.30;;;;;;;20.25;66.17;96848.56;29395;262;63005;-68
2023/09/11 00:30:28;;;;;;;0.30;0.30;;;;;;;20.23;66.23;96845.37;29395;220;63009;-68
2023/09/11 00:31:03;;;;;;;0.30;0.30;;;;;;;20.23;66.16;96848.13;29395;219;63005;-53
2023/09/11 00:31:34;;;;;;;0.30;0.30;;;;;;;20.23;66.53;96845.37;29395;204;63009;-53
2023/09/11 00:32:09;;;;;;;0.30;0.30;;;;;;;20.21;66.61;96842.97;29394;208;64009;-53
2023/09/11 00:32:40;;;;;;;0.30;0.30;;;;;;;20.21;66.36;96847.69;29395;286;63009;-68
2023/09/11 00:33:11;;;;;;;0.30;0.30;;;;;;;20.20;66.27;96846.09;29395;214;63005;-53
2023/09/11 00:33:43;;;;;;;0.30;0.30;;;;;;;20.19;66.62;96850.78;29395;209;63009;-54
2023/09/11 00:34:15;;;;;;;0.30;0.30;;;;;;;20.18;66.47;96848.38;29395;245;63004;-53
2023/09/11 00:34:46;;;;;;;0.30;0.30;;;;;;;20.17;66.83;96841.28;29395;224;63024;-53
2023/09/11 00:35:19;;;;;;;0.30;0.30;;;;;;;20.17;66.84;96846.78;29395;222;63004;-68
2023/09/11 00:35:51;;;;;;;0.30;0.30;;;;;;;20.16;66.93;96845.19;29395;211;63009;-68
2023/09/11 00:36:23;;;;;;;0.30;0.30;;;;;;;20.14;67.05;96837.28;29395;226;63004;-69
2023/09/11 00:36:54;;;;;;;0.30;0.30;;;;;;;20.14;67.23;96839.22;29395;204;63008;-53
2023/09/11 00:37:25;;;;;;;0.30;0.30;;;;;;;20.13;67.35;96841.19;29394;196;64009;-67
2023/09/11 00:37:57;;;;;;;0.30;0.30;;;;;;;20.12;67.26;96844.28;29395;239;63009;-53
2023/09/11 00:38:28;;;;;;;0.30;0.30;;;;;;;20.10;67.28;96843.88;29395;279;63005;-53
2023/09/11 00:38:59;;;;;;;0.30;0.30;;;;;;;20.08;67.41;96842.28;29395;249;63009;-68
2023/09/11 00:39:30;;;;;;;0.30;0.30;;;;;;;20.07;67.52;96837.94;29395;217;63011;-54
2023/09/11 00:40:04;;;;;;;0.30;0.30;;;;;;;20.06;67.59;96847.34;29395;241;63009;-54
2023/09/11 00:40:36;;;;;;;0.30;0.30;;;;;;;20.05;67.51;96843.00;29395;207;63009;-68
2023/09/11 00:41:07;;;;;;;0.30;0.30;;;;;;;20.05;67.84;96844.94;29395;256;63009;-54
2023/09/11 00:41:40;;;;;;;0.30;0.30;;;;;;;20.04;67.64;96838.63;29395;198;63004;-53
2023/09/11 00:42:11;;;;;;;0.30;0.30;;;;;;;20.04;67.93;96838.63;29395;221;63009;-67
2023/09/11 00:42:43;;;;;;;0.30;0.30;;;;;;;20.04;68.07;96844.16;29394;204;64009;-67
2023/09/11 00:43:14;;;;;;;0.30;0.30;;;;;;;20.04;68.21;96844.16;29395;296;63009;-69
2023/09/11 00:43:45;;;;;;;0.30;0.30;;;;;;;20.04;68.04;96844.16;29395;210;63004;-54
2023/09/11 00:44:16;;;;;;;0.30;0.30;;;;;;;20.04;67.89;96835.88;29395;220;63008;-53
2023/09/11 00:44:48;;;;;;;0.30;0.30;;;;;;;20.05;68.10;96834.72;29395;253;63004;-68
2023/09/11 00:45:19;;;;;;;0.30;0.30;;;;;;;20.05;68.07;96843.00;29395;253;63009;-68
2023/09/11 00:45:51;;;;;;;0.30;0.30;;;;;;;20.05;67.91;96834.72;29395;248;63010;-53
2023/09/11 00:46:23;;;;;;;0.30;0.30;;;;;;;20.06;68.03;96836.31;29395;239;63009;-54
2023/09/11 00:46:54;;;;;;;0.30;0.30;;;;;;;20.07;67.75;96826.91;29395;209;63005;-54
2023/09/11 00:47:29;;;;;;;0.30;0.30;;;;;;;20.08;67.64;96836.78;29395;202;63009;-54
2023/09/11 00:48:01;;;;;;;0.30;0.30;;;;;;;20.09;67.78;96829.31;29394;236;64009;-54
2023/09/11 00:48:32;;;;;;;0.30;0.30;;;;;;;20.09;67.78;96832.06;29395;242;63009;-68
2023/09/11 00:49:06;;;;;;;0.30;0.30;;;;;;;20.10;67.72;96835.63;29395;232;63005;-53
2023/09/11 00:49:39;;;;;;;0.40;0.40;;;;;;;20.10;67.61;96830.87;29395;230;63009;-54
2023/09/11 00:50:11;;;;;;;0.30;0.30;;;;;;;20.11;67.64;96826.97;29395;196;63004;-54
2023/09/11 00:50:44;;;;;;;0.30;0.30;;;;;;;20.11;67.59;96832.47;29395;219;63009;-67
2023/09/11 00:51:16;;;;;;;0.30;0.30;;;;;;;20.11;67.50;96829.72;29395;209;63004;-52
2023/09/11 00:51:49;;;;;;;0.30;0.30;;;;;;;20.11;67.52;96824.22;29395;208;63008;-53
2023/09/11 00:52:21;;;;;;;0.30;0.30;;;;;;;20.13;67.60;96823.88;29395;226;63004;-67
2023/09/11 00:52:53;;;;;;;0.30;0.30;;;;;;;20.14;67.63;96828.22;29395;210;63009;-54
2023/09/11 00:53:26;;;;;;;0.30;0.30;;;;;;;20.14;67.39;96826.25;29394;199;63998;-53
2023/09/11 00:53:58;;;;;;;0.30;0.30;;;;;;;20.14;67.75;96830.97;29395;253;63009;-67
2023/09/11 00:54:30;;;;;;;0.30;0.30;;;;;;;20.15;67.41;96822.34;29395;223;63005;-53
2023/09/11 00:55:02;;;;;;;0.30;0.30;;;;;;;20.16;67.43;96828.66;29395;196;63009;-53
2023/09/11 00:55:33;;;;;;;0.30;0.30;;;;;;;20.16;67.33;96823.16;29395;240;63005;-54
2023/09/11 00:56:04;;;;;;;0.30;0.30;;;;;;;20.15;67.43;96825.09;29395;227;63009;-53
2023/09/11 00:56:36;;;;;;;0.30;0.30;;;;;;;20.16;67.15;96823.16;29395;302;63004;-53
2023/09/11 00:57:08;;;;;;;0.30;0.30;;;;;;;20.16;67.56;96826.72;29395;257;63009;-53
2023/09/11 00:57:41;;;;;;;0.30;0.30;;;;;;;20.17;67.40;96822.00;29395;222;63004;-53
2023/09/11 00:58:16;;;;;;;0.30;0.30;;;;;;;20.17;67.50;96824.75;29395;197;63009;-54
2023/09/11 00:58:49;;;;;;;0.30;0.30;;;;;;;20.17;67.52;96819.25;29394;253;64008;-53
2023/09/11 00:59:21;;;;;;;0.30;0.30;;;;;;;20.18;67.55;96826.34;29395;198;63009;-53
2023/09/11 00:59:52;;;;;;;0.35;0.35;;;;;;;20.17;67.42;96820.03;29395;199;63005;-54
2023/09/11 01:00:23;;;;;;;0.30;0.30;;;;;;;20.17;67.78;96819.25;29395;197;63009;-53
2023/09/11 01:00:55;;;;;;;0.30;0.30;;;;;;;20.17;67.52;96825.56;29395;215;63005;-53
2023/09/11 01:01:27;;;;;;;0.30;0.30;;;;;;;20.17;67.60;96819.25;29395;202;63009;-53
2023/09/11 01:02:00;;;;;;;0.30;0.30;;;;;;;20.18;67.49;96820.84;29395;202;63005;-54
2023/09/11 01:02:31;;;;;;;0.30;0.30;;;;;;;20.17;67.49;96820.03;29395;235;63009;-67
2023/09/11 01:03:03;;;;;;;0.30;0.30;;;;;;;20.18;67.18;96820.84;29395;215;63005;-54
2023/09/11 01:03:35;;;;;;;0.30;0.30;;;;;;;20.17;67.56;96822.00;29395;236;63013;-53
2023/09/11 01:04:06;;;;;;;0.30;0.30;;;;;;;20.18;67.51;96815.34;29394;264;64009;-53
2023/09/11 01:04:37;;;;;;;0.30;0.30;;;;;;;20.18;67.70;96818.09;29395;197;63009;-52
2023/09/11 01:05:12;;;;;;;0.30;0.30;;;;;;;20.17;67.54;96817.28;29395;210;63004;-53
2023/09/11 01:05:44;;;;;;;0.40;0.40;;;;;;;20.18;67.63;96815.34;29394;233;64013;-53
2023/09/11 01:06:16;;;;;;;0.30;0.30;;;;;;;20.17;67.67;96811.78;29395;242;63004;-67
2023/09/11 01:06:47;;;;;;;0.30;0.30;;;;;;;20.19;67.58;96811.41;29395;210;63009;-53
2023/09/11 01:07:18;;;;;;;0.30;0.30;;;;;;;20.18;67.42;96816.13;29395;259;63005;-55
2023/09/11 01:07:50;;;;;;;0.30;0.30;;;;;;;20.19;67.37;96811.41;29395;248;63009;-55
2023/09/11 01:08:24;;;;;;;0.30;0.30;;;;;;;20.19;67.69;96816.94;29395;216;63005;-53
2023/09/11 01:08:57;;;;;;;0.40;0.40;;;;;;;20.19;67.52;96816.94;29395;196;63009;-67
2023/09/11 01:09:29;;;;;;;0.30;0.30;;;;;;;20.20;67.80;96813.81;29395;224;63005;-55
2023/09/11 01:10:05;;;;;;;0.30;0.30;;;;;;;20.20;67.50;96813.03;29395;242;63009;-68
2023/09/11 01:10:36;;;;;;;0.30;0.30;;;;;;;20.20;67.72;96815.78;29394;237;64009;-68
2023/09/11 01:11:08;;;;;;;0.30;0.30;;;;;;;20.20;67.59;96813.03;29395;197;63009;-53
2023/09/11 01:11:39;;;;;;;0.30;0.30;;;;;;;20.19;67.42;96811.41;29395;252;63004;-53
2023/09/11 01:12:11;;;;;;;0.30;0.30;;;;;;;20.21;67.48;96809.09;29395;257;63009;-54
2023/09/11 01:12:42;;;;;;;0.35;0.35;;;;;;;20.20;67.66;96810.25;29395;212;63004;-66
2023/09/11 01:13:13;;;;;;;0.30;0.30;;;;;;;20.19;67.47;96811.41;29395;211;63009;-67
2023/09/11 01:13:45;;;;;;;0.30;0.30;;;;;;;20.19;67.42;96812.22;29395;247;63007;-54
2023/09/11 01:14:16;;;;;;;0.30;0.30;;;;;;;20.19;67.72;96805.91;29395;301;63008;-53
2023/09/11 01:14:48;;;;;;;0.22;0.22;;;;;;;20.20;67.89;96807.50;29394;252;64009;-67
2023/09/11 01:15:19;;;;;;;0.30;0.30;;;;;;;20.19;67.77;96811.41;29395;212;63009;-67
2023/09/11 01:16:07;;;;;;;0.30;0.30;;;;;;;20.20;67.70;96813.03;29395;199;63005;-53
2023/09/11 01:17:33;;;;;;;0.30;0.30;;;;;;;20.18;67.83;96807.87;29395;222;63009;-54
2023/09/11 01:18:16;;;;;;;0.30;0.30;;;;;;;20.18;67.99;96815.34;29395;199;63005;-53
2023/09/11 01:19:11;;;;;;;0.30;0.30;;;;;;;20.17;67.56;96810.97;29395;206;63009;-68
2023/09/11 01:20:37;;;;;;;0.30;0.30;;;;;;;20.16;67.79;96812.94;29395;206;63004;-55
2023/09/11 01:21:49;;;;;;;0.30;0.30;;;;;;;20.15;67.92;96805.03;29394;211;64013;-54
2023/09/11 01:22:49;;;;;;;0.40;0.40;;;;;;;20.13;67.81;96804.56;29417;219;63008;-53
2023/09/11 01:23:57;;;;;;;0.30;0.30;;;;;;;20.12;67.75;96806.53;29395;222;63013;-68
2023/09/11 01:25:06;;;;;;;0.30;0.30;;;;;;;20.10;67.92;96800.56;29395;216;63009;-53
2023/09/11 01:26:05;;;;;;;0.40;0.40;;;;;;;20.10;68.14;96808.06;29395;199;63009;-54
2023/09/11 01:27:31;;;;;;;0.30;0.30;;;;;;;20.07;68.22;96810.38;29394;211;64009;-53
2023/09/11 01:28:31;;;;;;;0.40;0.40;;;;;;;20.06;68.26;96806.03;29395;223;63008;-67
2023/09/11 01:29:31;;;;;;;0.30;0.30;;;;;;;20.04;68.33;96805.59;29395;241;63004;-54
2023/09/11 01:30:05;;;;;;;0.30;0.30;;;;;;;20.04;68.38;96800.06;29394;197;64014;-53
2023/09/11 01:30:39;;;;;;;0.30;0.30;;;;;;;20.04;68.51;96805.59;29395;296;63005;-53
2023/09/11 01:31:12;;;;;;;0.30;0.30;;;;;;;20.05;68.57;96800.87;29395;293;63009;-54
2023/09/11 01:31:45;;;;;;;0.30;0.30;;;;;;;20.04;68.38;96804.78;29395;216;63005;-67
2023/09/11 01:32:19;;;;;;;0.30;0.30;;;;;;;20.02;68.05;96796.88;29395;197;63009;-67
2023/09/11 01:32:51;;;;;;;0.30;0.30;;;;;;;20.03;68.23;96797.69;29395;281;63004;-68
2023/09/11 01:33:23;;;;;;;0.30;0.30;;;;;;;20.03;68.15;96803.19;29395;203;63009;-52
2023/09/11 01:33:59;;;;;;;0.30;0.30;;;;;;;20.02;68.58;96801.59;29394;236;64009;-68
2023/09/11 01:34:30;;;;;;;0.30;0.30;;;;;;;20.01;68.53;96798.03;29395;284;63009;-53
2023/09/11 01:35:02;;;;;;;0.30;0.30;;;;;;;20.01;68.30;96800.78;29395;196;63004;-53
2023/09/11 01:35:33;;;;;;;0.30;0.30;;;;;;;20.03;68.37;96800.44;29395;254;63008;-53
2023/09/11 01:36:06;;;;;;;0.30;0.30;;;;;;;20.03;68.59;96801.22;29394;219;64008;-53
2023/09/11 01:36:37;;;;;;;0.30;0.30;;;;;;;20.02;68.46;96798.84;29395;209;63009;-54
2023/09/11 01:37:08;;;;;;;0.30;0.30;;;;;;;20.02;68.30;96793.31;29395;220;63005;-53
2023/09/11 01:37:40;;;;;;;0.30;0.30;;;;;;;20.02;68.53;96798.84;29395;252;63009;-53
2023/09/11 01:38:12;;;;;;;0.30;0.30;;;;;;;20.02;68.50;96796.88;29394;212;64009;-54
2023/09/11 01:38:43;;;;;;;0.30;0.30;;;;;;;20.02;68.53;96801.59;29395;202;63009;-55
2023/09/11 01:39:15;;;;;;;0.30;0.30;;;;;;;20.03;68.31;96801.22;29395;213;63005;-53
2023/09/11 01:39:50;;;;;;;0.30;0.30;;;;;;;20.01;68.62;96789.78;29395;220;63015;-54
2023/09/11 01:40:24;;;;;;;0.30;0.30;;;;;;;20.01;68.52;96791.72;29395;198;63004;-53
2023/09/11 01:40:59;;;;;;;0.30;0.30;;;;;;;20.01;68.75;96800.78;29395;297;63009;-54
2023/09/11 01:41:41;;;;;;;0.30;0.30;;;;;;;20.00;68.82;96792.87;29395;228;63004;-53
2023/09/11 01:42:17;;;;;;;0.30;0.30;;;;;;;20.00;68.67;96799.19;29395;290;63009;-53
2023/09/11 01:42:52;;;;;;;0.30;0.30;;;;;;;20.01;68.59;96795.28;29394;240;64009;-67
2023/09/11 01:43:29;;;;;;;0.30;0.30;;;;;;;20.00;68.82;96793.69;29395;205;63008;-53
2023/09/11 01:44:30;;;;;;;0.30;0.30;;;;;;;20.01;68.85;96799.97;29395;214;63005;-53
2023/09/11 01:45:03;;;;;;;0.30;0.30;;;;;;;20.01;68.65;96795.28;29416;265;64009;-53
2023/09/11 01:45:36;;;;;;;0.35;0.35;;;;;;;20.02;68.66;96796.06;29395;203;63005;-54
2023/09/11 01:46:07;;;;;;;0.30;0.30;;;;;;;20.00;68.77;96801.94;29395;250;63009;-54
2023/09/11 01:46:39;;;;;;;0.30;0.30;;;;;;;20.01;68.59;96788.97;29395;272;63005;-67
2023/09/11 01:47:20;;;;;;;0.30;0.30;;;;;;;20.00;68.39;96796.44;29394;198;64013;-67
2023/09/11 01:47:53;;;;;;;0.30;0.30;;;;;;;20.00;68.63;96795.62;29416;220;64009;-55
2023/09/11 01:48:25;;;;;;;0.30;0.30;;;;;;;20.00;68.83;96792.87;29395;198;63009;-53
2023/09/11 01:48:59;;;;;;;0.30;0.30;;;;;;;20.01;69.07;96791.72;29395;269;63004;-53
2023/09/11 01:49:33;;;;;;;0.30;0.30;;;;;;;20.01;68.84;96794.47;29395;251;63009;-67
2023/09/11 01:50:07;;;;;;;0.30;0.30;;;;;;;20.01;68.47;96795.28;29395;211;63004;-54
2023/09/11 01:50:40;;;;;;;0.30;0.30;;;;;;;20.01;68.65;96789.78;29395;242;63008;-67
2023/09/11 01:51:14;;;;;;;0.30;0.30;;;;;;;20.03;68.37;96786.66;29395;198;63004;-53
2023/09/11 01:51:46;;;;;;;0.30;0.30;;;;;;;20.03;68.41;96792.97;29395;271;63009;-53
2023/09/11 01:52:19;;;;;;;0.30;0.30;;;;;;;20.03;68.20;96792.16;29395;259;63005;-53
2023/09/11 01:52:51;;;;;;;0.30;0.30;;;;;;;20.04;67.93;96789.06;29394;239;64014;-54
2023/09/11 01:53:23;;;;;;;0.30;0.30;;;;;;;20.03;68.11;96792.97;29395;214;63005;-66
2023/09/11 01:53:54;;;;;;;0.30;0.30;;;;;;;20.04;68.22;96788.25;29395;248;63009;-53
2023/09/11 01:54:26;;;;;;;0.30;0.30;;;;;;;20.01;68.44;96787.00;29395;244;63008;-54
2023/09/11 01:54:58;;;;;;;0.30;0.30;;;;;;;20.02;68.16;96794.13;29395;205;63009;-53
2023/09/11 01:55:34;;;;;;;0.30;0.30;;;;;;;20.02;68.50;96787.81;29395;197;63004;-54
2023/09/11 01:56:05;;;;;;;0.30;0.30;;;;;;;20.01;68.69;96791.72;29395;211;63009;-68
2023/09/11 01:56:37;;;;;;;0.30;0.30;;;;;;;20.00;68.40;96793.69;29395;211;63004;-68
2023/09/11 01:57:09;;;;;;;0.30;0.30;;;;;;;20.01;68.83;96788.97;29395;226;63009;-66
2023/09/11 01:58:49;;;;;;;0.33;0.33;;;;;;;20.00;68.73;96790.91;87938;211;151011;-53
2023/09/11 01:59:21;;;;;;;0.30;0.30;;;;;;;20.00;68.42;96792.87;29394;220;64009;-66
2023/09/11 01:59:52;;;;;;;0.30;0.30;;;;;;;19.99;68.43;96785.78;29395;222;63004;-53
2023/09/11 02:00:24;;;;;;;0.30;0.30;;;;;;;19.98;68.51;96786.94;29394;208;64013;-52
2023/09/11 02:00:55;;;;;;;1.27;1.27;;;;;;;19.97;68.90;96791.63;29395;214;63004;-53
2023/09/11 02:01:26;;;;;;;0.30;0.30;;;;;;;19.97;68.89;96788.88;29395;206;63009;-53
2023/09/11 02:02:01;;;;;;;0.30;0.30;;;;;;;19.97;69.29;96788.09;29394;219;64009;-67
2023/09/11 02:02:32;;;;;;;0.30;0.30;;;;;;;19.96;69.33;96790.03;29395;205;63008;-66
2023/09/11 02:03:04;;;;;;;0.30;0.30;;;;;;;19.96;69.28;96787.28;29394;197;64008;-54
2023/09/11 02:03:36;;;;;;;0.30;0.30;;;;;;;19.94;69.84;96795.09;29395;212;63009;-53
2023/09/11 02:04:08;;;;;;;0.30;0.30;;;;;;;19.93;70.00;96793.50;29395;252;63005;-53
2023/09/11 02:04:39;;;;;;;0.30;0.30;;;;;;;19.91;70.40;96790.28;29395;207;63009;-54
2023/09/11 02:05:10;;;;;;;0.30;0.30;;;;;;;19.91;70.42;96792.25;29394;203;64009;-54
2023/09/11 02:05:42;;;;;;;0.30;0.30;;;;;;;19.89;69.92;96789.06;29395;215;63018;-54
2023/09/11 02:06:13;;;;;;;0.30;0.30;;;;;;;19.87;70.66;96789.41;29395;230;63005;-53
2023/09/11 02:06:44;;;;;;;0.30;0.30;;;;;;;19.85;70.99;96794.47;29395;249;63009;-54
2023/09/11 02:07:16;;;;;;;0.30;0.30;;;;;;;19.84;70.93;96790.13;29395;247;63005;-54
2023/09/11 02:07:47;;;;;;;0.30;0.30;;;;;;;19.83;70.96;96788.50;29395;283;63009;-53
2023/09/11 02:08:18;;;;;;;0.30;0.30;;;;;;;19.83;71.10;96790.47;29395;227;63004;-54
2023/09/11 02:08:49;;;;;;;0.30;0.30;;;;;;;19.83;70.86;96787.72;29395;202;63009;-53
2023/09/11 02:09:21;;;;;;;0.30;0.30;;;;;;;19.82;71.11;96784.16;29395;285;63004;-53
2023/09/11 02:09:53;;;;;;;0.30;0.30;;;;;;;19.81;70.83;96785.31;29394;199;64013;-53
2023/09/11 02:10:24;;;;;;;0.30;0.30;;;;;;;19.80;71.01;96789.22;29395;210;63004;-54
2023/09/11 02:10:55;;;;;;;0.30;0.30;;;;;;;19.80;70.70;96789.22;29395;289;63009;-54
2023/09/11 02:11:26;;;;;;;0.30;0.30;;;;;;;19.80;71.02;96788.41;29394;215;64009;-52
2023/09/11 02:11:58;;;;;;;0.30;0.30;;;;;;;19.79;70.76;96786.81;29395;242;63011;-53
2023/09/11 02:12:29;;;;;;;0.30;0.30;;;;;;;19.78;70.52;96783.28;29395;242;63005;-53
2023/09/11 02:14:09;;;;;;;0.31;0.31;;;;;;;19.75;70.64;96781.25;88174;202;64004;-53
2023/09/11 02:14:40;;;;;;;0.30;0.30;;;;;;;19.74;70.25;96785.16;29394;249;64009;-53
2023/09/11 02:15:12;;;;;;;0.30;0.30;;;;;;;19.75;70.31;96786.75;29395;197;63005;-53
2023/09/11 02:15:43;;;;;;;0.30;0.30;;;;;;;19.74;70.39;96785.16;29395;252;63009;-53
2023/09/11 02:16:14;;;;;;;0.30;0.30;;;;;;;19.74;70.15;96796.16;29394;237;64009;-53
2023/09/11 02:16:45;;;;;;;0.30;0.30;;;;;;;19.73;70.91;96789.06;29395;243;63009;-53
2023/09/11 02:17:16;;;;;;;0.30;0.30;;;;;;;19.74;70.53;96787.91;29395;217;63004;-53
2023/09/11 02:17:48;;;;;;;0.30;0.30;;;;;;;19.73;70.77;96789.88;29395;353;63009;-53
2023/09/11 02:18:19;;;;;;;0.30;0.30;;;;;;;19.73;70.43;96778.06;29395;221;63004;-53
2023/09/11 02:18:50;;;;;;;0.30;0.30;;;;;;;19.73;71.20;96794.56;29395;358;63008;-54
2023/09/11 02:19:21;;;;;;;0.30;0.30;;;;;;;19.73;70.83;96789.06;29395;267;63005;-54
2023/09/11 02:19:52;;;;;;;0.30;0.30;;;;;;;19.72;71.09;96787.47;29395;256;63009;-53
2023/09/11 02:20:24;;;;;;;0.30;0.30;;;;;;;19.72;70.91;96787.47;29395;218;63017;-54
2023/09/11 02:20:55;;;;;;;0.30;0.30;;;;;;;19.71;71.00;96786.66;29394;219;64034;-54
2023/09/11 02:21:27;;;;;;;0.30;0.30;;;;;;;19.72;70.90;96781.97;29395;202;63005;-55
2023/09/11 02:21:58;;;;;;;0.30;0.30;;;;;;;19.71;71.07;96780.34;29394;222;64013;-54
2023/09/11 02:22:29;;;;;;;0.30;0.30;;;;;;;19.72;70.85;96787.47;29395;211;63005;-54
2023/09/11 02:23:00;;;;;;;0.30;0.30;;;;;;;19.72;71.32;96781.97;29395;204;63009;-54
2023/09/11 02:23:31;;;;;;;0.30;0.30;;;;;;;19.72;70.91;96787.47;29395;205;63004;-54
2023/09/11 02:24:03;;;;;;;0.30;0.30;;;;;;;19.73;70.95;96780.81;29395;210;63009;-55
2023/09/11 02:24:35;;;;;;;0.30;0.30;;;;;;;19.72;69.92;96782.75;29395;238;63004;-55
2023/09/11 02:25:07;;;;;;;0.30;0.30;;;;;;;19.71;70.27;96775.66;29395;199;63009;-54
2023/09/11 02:25:38;;;;;;;0.30;0.30;;;;;;;19.71;70.31;96785.88;29395;205;63004;-54
2023/09/11 02:26:09;;;;;;;0.30;0.30;;;;;;;19.70;70.33;96790.56;29394;202;64013;-54
2023/09/11 02:26:41;;;;;;;0.30;0.30;;;;;;;19.71;70.02;96783.13;29395;222;63004;-54
2023/09/11 02:27:12;;;;;;;0.30;0.30;;;;;;;19.69;70.66;96782.66;29395;223;63009;-55
2023/09/11 02:27:43;;;;;;;0.30;0.30;;;;;;;19.69;70.25;96782.66;29394;202;64005;-55
2023/09/11 02:28:15;;;;;;;0.30;0.30;;;;;;;19.70;70.54;96784.25;29395;200;63009;-54
2023/09/11 02:28:46;;;;;;;0.30;0.30;;;;;;;19.69;70.44;96788.16;29395;207;63005;-53
2023/09/11 02:29:17;;;;;;;0.30;0.30;;;;;;;19.68;70.46;96786.56;29394;200;64013;-53
2023/09/11 02:29:49;;;;;;;0.30;0.30;;;;;;;19.67;70.22;96785.78;29395;204;63005;-53
2023/09/11 02:30:20;;;;;;;0.30;0.30;;;;;;;19.66;70.30;96777.87;29395;262;63009;-53
2023/09/11 02:30:52;;;;;;;0.30;0.30;;;;;;;19.65;70.10;96781.78;29395;197;63005;-53
2023/09/11 02:31:24;;;;;;;0.30;0.30;;;;;;;19.64;70.38;96782.94;29395;214;63009;-53
2023/09/11 02:31:55;;;;;;;0.30;0.30;;;;;;;19.63;70.43;96784.06;29395;228;63004;-53
2023/09/11 02:32:26;;;;;;;0.30;0.30;;;;;;;19.62;70.19;96779.72;29394;205;64013;-53
2023/09/11 02:32:57;;;;;;;0.30;0.30;;;;;;;19.60;70.49;96779.28;29395;210;63004;-54
2023/09/11 02:33:29;;;;;;;0.30;0.30;;;;;;;19.58;70.52;96776.06;29395;202;63009;-54
2023/09/11 02:34:00;;;;;;;0.30;0.30;;;;;;;19.57;70.29;96777.22;29395;215;63004;-53
2023/09/11 02:34:31;;;;;;;0.30;0.30;;;;;;;19.56;70.57;96783.87;29395;196;63009;-54
2023/09/11 02:35:03;;;;;;;0.30;0.30;;;;;;;19.55;70.27;96785.84;29394;259;64005;-55
2023/09/11 02:35:34;;;;;;;0.30;0.30;;;;;;;19.54;70.71;96784.25;29395;204;63009;-54
2023/09/11 02:36:06;;;;;;;0.30;0.30;;;;;;;19.54;70.94;96787.00;29394;311;64009;-54
2023/09/11 02:36:37;;;;;;;0.30;0.30;;;;;;;19.52;70.81;96781.03;29395;205;63009;-54
2023/09/11 02:37:08;;;;;;;0.30;0.30;;;;;;;19.51;70.43;96781.38;29394;221;64009;-54
2023/09/11 02:37:39;;;;;;;0.30;0.30;;;;;;;19.51;71.11;96784.94;29395;219;63009;-53
2023/09/11 02:38:13;;;;;;;0.30;0.30;;;;;;;19.50;70.71;96788.00;29394;207;64001;-53
2023/09/11 02:38:44;;;;;;;0.30;0.30;;;;;;;19.49;70.78;96783.66;29395;224;63024;-54
2023/09/11 02:39:15;;;;;;;0.30;0.30;;;;;;;19.48;70.66;96785.63;29395;270;63004;-52
2023/09/11 02:39:47;;;;;;;0.30;0.30;;;;;;;19.47;70.70;96786.75;29395;224;63009;-53
2023/09/11 02:40:18;;;;;;;0.30;0.30;;;;;;;19.47;70.90;96770.25;29395;211;63004;-53
2023/09/11 02:40:49;;;;;;;0.30;0.30;;;;;;;19.48;71.17;96784.81;29395;210;63008;-53
2023/09/11 02:41:21;;;;;;;0.30;0.30;;;;;;;19.47;70.89;96788.72;29395;275;63009;-53
2023/09/11 02:41:52;;;;;;;0.30;0.30;;;;;;;19.46;71.35;96784.37;29395;208;63008;-54
2023/09/11 02:42:23;;;;;;;0.30;0.30;;;;;;;19.46;70.76;96784.37;29395;220;63005;-54